Time;durP1;ratioP1;P1;durP2;ratioP2;P2;SDS_P1;SDS_P2;PMS_P1;PMS_P2;Temp;Humidity;BMP_temperature;BMP_pressure;BME280_temperature;BME280_humidity;BME280_pressure;Samples;Min_cycle;Max_cycle;Signal;HPM_P1;HPM_P2
2023/05/19 00:01:12;;;;;;;19.00;11.30;;;;;;;;;;5113608;28;20032;-83
2023/05/19 00:03:40;;;;;;;14.23;11.23;;;;;;;;;;5117191;28;20034;-83
2023/05/19 00:06:10;;;;;;;16.20;10.80;;;;;;;;;;5098093;28;20024;-83
2023/05/19 00:08:37;;;;;;;17.08;10.30;;;;;;;;;;5114696;28;20030;-84
2023/05/19 00:11:03;;;;;;;17.15;11.13;;;;;;;;;;5119772;28;20064;-83
2023/05/19 00:13:30;;;;;;;14.65;10.57;;;;;;;;;;5107611;28;20046;-82
2023/05/19 00:15:56;;;;;;;13.90;10.38;;;;;;;;;;5109949;28;20077;-83
2023/05/19 00:18:22;;;;;;;14.55;10.32;;;;;;;;;;5114002;28;20066;-83
2023/05/19 00:20:50;;;;;;;16.33;10.48;;;;;;;;;;5114218;28;20072;-83
2023/05/19 00:23:16;;;;;;;18.80;10.45;;;;;;;;;;5103479;28;20036;-83
2023/05/19 00:25:42;;;;;;;17.48;10.15;;;;;;;;;;5116106;28;20042;-83
2023/05/19 00:28:08;;;;;;;22.83;13.07;;;;;;;;;;5108617;28;20019;-83
2023/05/19 00:30:34;;;;;;;19.55;13.65;;;;;;;;;;5119223;28;20379;-84
2023/05/19 00:33:00;;;;;;;18.40;11.77;;;;;;;;;;5118884;28;20031;-84
2023/05/19 00:38:33;;;;;;;29.38;26.27;;;;;;;;;;5118504;28;20383;-84
2023/05/19 00:41:00;;;;;;;17.67;14.45;;;;;;;;;;5111361;28;20027;-85
2023/05/19 00:43:26;;;;;;;15.10;10.90;;;;;;;;;;5098772;28;20088;-85
2023/05/19 00:45:52;;;;;;;16.40;13.63;;;;;;;;;;5113343;28;20046;-84
2023/05/19 00:48:19;;;;;;;24.88;21.10;;;;;;;;;;5117797;28;20015;-86
2023/05/19 00:50:45;;;;;;;16.70;14.95;;;;;;;;;;5099100;28;20027;-85
2023/05/19 00:53:13;;;;;;;21.80;17.48;;;;;;;;;;5115299;28;20019;-84
2023/05/19 00:55:40;;;;;;;18.83;15.18;;;;;;;;;;5102168;28;20348;-85
2023/05/19 00:58:08;;;;;;;23.15;13.10;;;;;;;;;;5098671;28;20055;-84
2023/05/19 01:00:35;;;;;;;26.85;20.55;;;;;;;;;;5098629;28;20031;-84
2023/05/19 01:03:01;;;;;;;24.30;19.13;;;;;;;;;;5101257;28;20024;-83
2023/05/19 01:05:27;;;;;;;20.83;17.20;;;;;;;;;;5118335;28;20069;-83
2023/05/19 01:07:55;;;;;;;13.88;11.80;;;;;;;;;;5117457;28;20065;-83
2023/05/19 01:10:21;;;;;;;24.98;19.45;;;;;;;;;;5118586;28;20027;-83
2023/05/19 01:12:47;;;;;;;21.02;18.70;;;;;;;;;;5109399;28;20075;-83
2023/05/19 01:15:14;;;;;;;24.67;22.15;;;;;;;;;;5105503;28;20038;-83
2023/05/19 01:17:55;;;;;;;22.42;17.90;;;;;;;;;;5100549;28;20106;-84
2023/05/19 01:20:27;;;;;;;21.93;18.47;;;;;;;;;;5109390;28;20028;-84
2023/05/19 01:23:09;;;;;;;18.90;16.77;;;;;;;;;;5111070;28;20042;-83
2023/05/19 01:25:51;;;;;;;22.73;19.50;;;;;;;;;;5117691;28;20481;-84
2023/05/19 01:28:36;;;;;;;17.70;13.65;;;;;;;;;;5110900;28;20126;-83
2023/05/19 01:31:04;;;;;;;14.38;9.75;;;;;;;;;;5109605;28;20417;-84
2023/05/19 01:33:32;;;;;;;18.23;9.60;;;;;;;;;;5116763;28;20030;-83
2023/05/19 01:35:59;;;;;;;16.02;11.05;;;;;;;;;;5099070;28;20032;-83
2023/05/19 01:38:25;;;;;;;17.60;12.68;;;;;;;;;;5108806;28;20440;-83
2023/05/19 01:40:51;;;;;;;19.05;13.25;;;;;;;;;;5118156;28;20027;-83
2023/05/19 01:43:20;;;;;;;21.73;12.73;;;;;;;;;;5099658;28;20074;-83
2023/05/19 01:45:46;;;;;;;18.02;12.90;;;;;;;;;;5096441;28;20364;-83
2023/05/19 01:48:12;;;;;;;16.55;11.27;;;;;;;;;;5096433;28;20039;-83
2023/05/19 01:50:38;;;;;;;18.40;11.50;;;;;;;;;;5097826;28;20062;-84
2023/05/19 01:53:05;;;;;;;16.90;11.88;;;;;;;;;;5097248;28;20020;-84
2023/05/19 01:55:31;;;;;;;21.98;11.85;;;;;;;;;;5097835;28;20443;-85
2023/05/19 01:58:16;;;;;;;16.42;11.40;;;;;;;;;;5097563;28;20047;-85
2023/05/19 02:01:00;;;;;;;21.88;12.85;;;;;;;;;;5096280;28;20052;-84
2023/05/19 02:03:33;;;;;;;19.08;12.02;;;;;;;;;;5096466;28;20024;-84
2023/05/19 02:06:06;;;;;;;17.88;11.85;;;;;;;;;;5097301;28;20024;-84
2023/05/19 02:08:51;;;;;;;18.75;11.82;;;;;;;;;;5096599;28;20295;-84
2023/05/19 02:11:21;;;;;;;19.63;11.52;;;;;;;;;;5097391;28;20067;-84
2023/05/19 02:13:50;;;;;;;14.88;10.85;;;;;;;;;;5104878;28;20023;-84
2023/05/19 02:16:17;;;;;;;21.65;11.73;;;;;;;;;;5100785;28;20428;-84
2023/05/19 02:18:44;;;;;;;18.33;11.90;;;;;;;;;;5105832;28;20110;-84
2023/05/19 02:21:30;;;;;;;19.65;10.88;;;;;;;;;;5117556;28;20030;-85
2023/05/19 02:23:56;;;;;;;17.67;11.02;;;;;;;;;;5117232;28;20140;-85
2023/05/19 02:26:22;;;;;;;17.90;11.32;;;;;;;;;;5100516;28;20441;-83
2023/05/19 02:28:48;;;;;;;17.33;11.48;;;;;;;;;;5115856;28;20425;-84
2023/05/19 02:31:14;;;;;;;19.48;11.82;;;;;;;;;;5117687;28;20024;-85
2023/05/19 02:33:41;;;;;;;18.92;12.20;;;;;;;;;;5106815;28;20093;-84
2023/05/19 02:36:08;;;;;;;19.83;12.30;;;;;;;;;;5114420;28;20028;-84
2023/05/19 02:38:35;;;;;;;16.48;11.93;;;;;;;;;;5099838;28;20436;-84
2023/05/19 02:41:01;;;;;;;18.00;12.95;;;;;;;;;;5097280;28;20047;-84
2023/05/19 02:43:29;;;;;;;17.35;12.30;;;;;;;;;;5112353;28;20032;-83
2023/05/19 02:45:55;;;;;;;17.15;13.48;;;;;;;;;;5114891;28;20024;-84
2023/05/19 02:48:21;;;;;;;27.33;13.45;;;;;;;;;;5117621;28;20409;-85
2023/05/19 02:50:47;;;;;;;22.73;13.43;;;;;;;;;;5117307;28;20039;-85
2023/05/19 02:53:13;;;;;;;18.02;12.85;;;;;;;;;;5106275;28;20028;-84
2023/05/19 02:55:39;;;;;;;16.77;12.50;;;;;;;;;;5097244;28;20082;-84
2023/05/19 02:58:05;;;;;;;15.05;12.18;;;;;;;;;;5097243;28;20065;-84
2023/05/19 03:00:31;;;;;;;21.02;13.13;;;;;;;;;;5101275;28;20102;-83
2023/05/19 03:03:01;;;;;;;19.95;13.60;;;;;;;;;;5115964;28;20034;-82
2023/05/19 03:05:27;;;;;;;15.90;12.77;;;;;;;;;;5118740;28;20355;-83
2023/05/19 03:07:54;;;;;;;22.23;13.30;;;;;;;;;;5121225;28;20020;-83
2023/05/19 03:10:20;;;;;;;17.02;13.85;;;;;;;;;;5120728;28;20015;-83
2023/05/19 03:12:46;;;;;;;24.85;13.07;;;;;;;;;;5120595;28;20278;-83
2023/05/19 03:15:13;;;;;;;19.38;13.75;;;;;;;;;;5119786;28;20157;-82
2023/05/19 03:17:39;;;;;;;18.98;14.10;;;;;;;;;;5103736;28;20028;-83
2023/05/19 03:20:11;;;;;;;20.92;14.18;;;;;;;;;;5118336;28;20496;-81
2023/05/19 03:22:37;;;;;;;19.85;13.38;;;;;;;;;;5105050;28;20058;-83
2023/05/19 03:25:03;;;;;;;17.58;13.65;;;;;;;;;;5120081;28;20073;-83
2023/05/19 03:27:29;;;;;;;21.17;14.02;;;;;;;;;;5107509;28;20032;-83
2023/05/19 03:29:55;;;;;;;21.95;14.68;;;;;;;;;;5106070;28;20031;-83
2023/05/19 03:32:21;;;;;;;20.83;15.93;;;;;;;;;;5099379;28;20040;-82
2023/05/19 03:34:47;;;;;;;24.13;16.25;;;;;;;;;;5100079;28;20032;-82
2023/05/19 03:37:14;;;;;;;20.17;15.77;;;;;;;;;;5099680;28;20038;-83
2023/05/19 03:39:40;;;;;;;21.33;15.32;;;;;;;;;;5108196;28;20313;-83
2023/05/19 03:42:06;;;;;;;22.85;14.60;;;;;;;;;;5107264;28;20108;-83
2023/05/19 03:44:33;;;;;;;21.48;14.88;;;;;;;;;;5111665;28;20028;-83
2023/05/19 03:46:59;;;;;;;20.95;14.45;;;;;;;;;;5099860;28;20027;-83
2023/05/19 03:49:25;;;;;;;19.48;14.27;;;;;;;;;;5101372;28;20024;-82
2023/05/19 03:51:51;;;;;;;22.17;13.27;;;;;;;;;;5110780;28;20035;-84
2023/05/19 03:54:17;;;;;;;19.10;13.25;;;;;;;;;;5104011;28;20049;-89
2023/05/19 03:56:44;;;;;;;23.27;12.45;;;;;;;;;;5103984;28;20036;-91
2023/05/19 03:59:11;;;;;;;19.33;12.70;;;;;;;;;;5099301;28;20063;-95
2023/05/19 04:01:37;;;;;;;15.00;10.55;;;;;;;;;;5100153;28;20321;-94
2023/05/19 04:04:03;;;;;;;17.40;10.45;;;;;;;;;;5102247;28;20329;-95
2023/05/19 04:06:29;;;;;;;14.77;10.10;;;;;;;;;;5107981;28;20463;-94
2023/05/19 04:08:56;;;;;;;12.55;9.32;;;;;;;;;;5100611;28;20490;-93
2023/05/19 04:11:22;;;;;;;14.48;8.90;;;;;;;;;;5098600;28;20398;-91
2023/05/19 04:13:48;;;;;;;11.98;8.75;;;;;;;;;;5098734;28;20303;-93
2023/05/19 04:16:14;;;;;;;13.73;8.13;;;;;;;;;;5099184;28;20390;-94
2023/05/19 04:18:40;;;;;;;11.77;9.35;;;;;;;;;;5099742;28;20032;-93
2023/05/19 04:21:07;;;;;;;11.90;9.07;;;;;;;;;;5109782;28;20052;-94
2023/05/19 04:23:33;;;;;;;12.32;8.45;;;;;;;;;;5121759;28;20429;-95
2023/05/19 04:26:00;;;;;;;9.48;8.23;;;;;;;;;;5121695;28;20023;-94
2023/05/19 04:28:26;;;;;;;10.02;8.18;;;;;;;;;;5117483;28;20019;-94
2023/05/19 04:30:53;;;;;;;15.38;8.82;;;;;;;;;;5099357;28;20028;-94
2023/05/19 04:33:19;;;;;;;10.05;7.80;;;;;;;;;;5100781;28;20098;-95
2023/05/19 04:35:45;;;;;;;11.25;7.25;;;;;;;;;;5099724;28;20405;-95
2023/05/19 04:38:12;;;;;;;10.30;7.40;;;;;;;;;;5107964;28;20032;-94
2023/05/19 04:40:41;;;;;;;10.27;7.45;;;;;;;;;;5114347;28;20020;-94
2023/05/19 04:43:08;;;;;;;9.95;7.35;;;;;;;;;;5100136;28;20337;-94
2023/05/19 04:45:36;;;;;;;8.25;7.22;;;;;;;;;;5099744;28;20034;-93
2023/05/19 04:48:02;;;;;;;10.43;7.10;;;;;;;;;;5100032;28;20024;-95
2023/05/19 04:56:49;;;;;;;9.73;7.13;;;;;;;;;;5060225;28;20047;-95
2023/05/19 04:59:15;;;;;;;7.93;6.97;;;;;;;;;;5058946;28;20108;-94
2023/05/19 05:01:41;;;;;;;8.98;7.43;;;;;;;;;;5059079;28;20020;-94
2023/05/19 05:04:07;;;;;;;8.73;7.53;;;;;;;;;;5058645;28;20032;-93
2023/05/19 05:06:37;;;;;;;14.00;8.05;;;;;;;;;;5057062;28;20029;-93
2023/05/19 05:09:03;;;;;;;13.23;8.45;;;;;;;;;;5058219;28;20411;-93
2023/05/19 05:11:29;;;;;;;11.00;7.20;;;;;;;;;;5069412;28;20028;-93
2023/05/19 05:13:56;;;;;;;8.35;7.38;;;;;;;;;;5078186;28;20055;-90
2023/05/19 05:16:23;;;;;;;10.80;8.43;;;;;;;;;;5077955;28;20028;-90
2023/05/19 05:18:50;;;;;;;18.48;13.73;;;;;;;;;;5077605;28;20410;-91
2023/05/19 05:21:16;;;;;;;19.52;15.13;;;;;;;;;;5076959;28;20032;-91
2023/05/19 05:23:42;;;;;;;22.85;15.40;;;;;;;;;;5076912;28;20025;-89
2023/05/19 05:26:10;;;;;;;17.77;14.32;;;;;;;;;;5076445;28;20029;-89
2023/05/19 05:28:36;;;;;;;15.68;13.20;;;;;;;;;;5076951;28;20036;-89
2023/05/19 05:31:02;;;;;;;16.77;11.15;;;;;;;;;;5078063;28;20048;-89
2023/05/19 05:33:28;;;;;;;11.95;9.98;;;;;;;;;;5077016;28;20032;-89
2023/05/19 05:42:15;;;;;;;17.13;10.35;;;;;;;;;;5059114;28;20480;-90
2023/05/19 05:44:41;;;;;;;13.65;10.73;;;;;;;;;;5077678;28;20025;-91
2023/05/19 05:47:07;;;;;;;13.75;9.48;;;;;;;;;;5077553;28;20025;-93
2023/05/19 05:49:36;;;;;;;12.27;9.55;;;;;;;;;;5078030;28;20120;-92
2023/05/19 05:52:03;;;;;;;15.13;8.48;;;;;;;;;;5076822;28;20024;-93
2023/05/19 05:54:30;;;;;;;15.70;9.43;;;;;;;;;;5078315;28;20109;-93
2023/05/19 05:56:57;;;;;;;11.43;8.35;;;;;;;;;;5080308;28;20436;-93
2023/05/19 05:59:23;;;;;;;13.77;12.27;;;;;;;;;;5096978;28;20024;-92
2023/05/19 06:01:49;;;;;;;13.45;8.88;;;;;;;;;;5096806;28;20028;-93
2023/05/19 06:04:16;;;;;;;10.02;8.85;;;;;;;;;;5096781;28;20069;-93
2023/05/19 06:06:42;;;;;;;13.20;8.10;;;;;;;;;;5097776;28;20024;-93
2023/05/19 06:09:08;;;;;;;13.25;8.60;;;;;;;;;;5096903;28;20020;-93
2023/05/19 06:11:34;;;;;;;11.20;9.13;;;;;;;;;;5098999;28;20145;-92
2023/05/19 06:14:00;;;;;;;11.52;9.48;;;;;;;;;;5097898;28;20035;-93
2023/05/19 06:16:26;;;;;;;13.05;9.30;;;;;;;;;;5096766;28;20039;-93
2023/05/19 06:18:52;;;;;;;14.30;8.55;;;;;;;;;;5097553;28;20052;-93
2023/05/19 06:24:22;;;;;;;11.50;8.48;;;;;;;;;;5098276;28;20026;-93
2023/05/19 06:26:48;;;;;;;9.15;8.07;;;;;;;;;;5097048;28;20025;-94
2023/05/19 06:29:14;;;;;;;11.45;7.32;;;;;;;;;;5109042;28;20027;-93
2023/05/19 06:31:40;;;;;;;13.68;9.15;;;;;;;;;;5126580;28;20059;-94
2023/05/19 06:34:06;;;;;;;13.07;8.55;;;;;;;;;;5117218;28;20027;-89
2023/05/19 06:36:34;;;;;;;14.05;9.30;;;;;;;;;;5117716;28;20024;-90
2023/05/19 06:39:00;;;;;;;16.13;9.25;;;;;;;;;;5118691;28;20032;-91
2023/05/19 06:41:26;;;;;;;9.40;7.32;;;;;;;;;;5120221;28;20039;-89
2023/05/19 06:43:52;;;;;;;7.28;6.57;;;;;;;;;;5120659;28;20027;-90
2023/05/19 06:46:18;;;;;;;7.53;6.72;;;;;;;;;;5121531;28;20020;-90
2023/05/19 06:48:44;;;;;;;9.95;6.88;;;;;;;;;;5121902;28;20023;-91
2023/05/19 06:54:14;;;;;;;9.23;7.22;;;;;;;;;;5121838;28;20115;-90
2023/05/19 06:56:41;;;;;;;11.45;7.20;;;;;;;;;;5121427;28;20048;-90
2023/05/19 06:59:07;;;;;;;8.00;6.68;;;;;;;;;;5106397;28;20052;-91
2023/05/19 07:01:33;;;;;;;8.10;6.15;;;;;;;;;;5101483;28;20091;-91
2023/05/19 07:03:59;;;;;;;7.28;6.57;;;;;;;;;;5101011;28;20027;-92
2023/05/19 07:13:23;;;;;;;12.10;6.88;;;;;;;;;;5100958;28;20067;-92
2023/05/19 07:15:51;;;;;;;8.95;6.70;;;;;;;;;;5100955;28;20028;-92
2023/05/19 07:18:17;;;;;;;8.60;6.40;;;;;;;;;;5100861;28;20036;-91
2023/05/19 07:23:46;;;;;;;8.45;6.38;;;;;;;;;;5120855;28;20107;-89
2023/05/19 07:26:12;;;;;;;7.55;5.72;;;;;;;;;;5119903;28;20032;-89
2023/05/19 07:28:39;;;;;;;7.95;6.18;;;;;;;;;;5120152;28;20057;-89
2023/05/19 07:31:05;;;;;;;10.13;5.97;;;;;;;;;;5100750;28;20028;-91
2023/05/19 07:33:31;;;;;;;7.15;5.38;;;;;;;;;;5100419;28;20020;-90
2023/05/19 07:39:01;;;;;;;8.52;6.22;;;;;;;;;;5100559;28;20077;-90
2023/05/19 07:41:27;;;;;;;7.22;5.63;;;;;;;;;;5101913;28;20325;-92
2023/05/19 07:43:53;;;;;;;7.47;6.15;;;;;;;;;;5100103;28;20039;-91
2023/05/19 07:46:20;;;;;;;6.72;6.00;;;;;;;;;;5100560;28;20043;-89
2023/05/19 07:48:47;;;;;;;8.40;6.50;;;;;;;;;;5101572;28;20024;-89
2023/05/19 07:54:17;;;;;;;7.00;6.30;;;;;;;;;;5100296;28;20119;-90
2023/05/19 07:56:43;;;;;;;9.98;6.30;;;;;;;;;;5098979;28;20044;-89
2023/05/19 07:59:09;;;;;;;7.60;6.78;;;;;;;;;;5101185;28;20027;-94
2023/05/19 08:01:35;;;;;;;8.32;6.75;;;;;;;;;;5099122;28;20063;-93
2023/05/19 08:04:02;;;;;;;7.22;6.53;;;;;;;;;;5100190;28;20103;-93
2023/05/19 08:06:46;;;;;;;12.25;6.82;;;;;;;;;;5108732;28;20027;-90
2023/05/19 08:09:12;;;;;;;12.70;7.95;;;;;;;;;;5118551;28;20016;-91
2023/05/19 08:11:38;;;;;;;11.57;6.00;;;;;;;;;;5118774;28;20328;-89
2023/05/19 08:14:05;;;;;;;10.80;6.50;;;;;;;;;;5120264;28;20042;-93
2023/05/19 08:16:31;;;;;;;9.00;6.75;;;;;;;;;;5120153;28;20110;-90
2023/05/19 08:18:59;;;;;;;8.20;6.57;;;;;;;;;;5124585;28;20027;-91
2023/05/19 08:24:48;;;;;;;9.45;6.00;;;;;;;;;;5120054;28;20070;-90
2023/05/19 08:27:15;;;;;;;9.18;6.28;;;;;;;;;;5118504;28;20042;-90
2023/05/19 08:29:41;;;;;;;9.40;5.80;;;;;;;;;;5119014;28;20287;-89
2023/05/19 08:32:07;;;;;;;8.07;5.90;;;;;;;;;;5119945;28;20024;-89
2023/05/19 08:34:33;;;;;;;9.20;6.38;;;;;;;;;;5119843;28;20051;-91
2023/05/19 08:40:04;;;;;;;10.27;5.95;;;;;;;;;;5123351;27;20023;-92
2023/05/19 08:42:31;;;;;;;11.02;6.22;;;;;;;;;;5119679;28;20321;-91
2023/05/19 08:44:58;;;;;;;8.35;6.13;;;;;;;;;;5119034;28;20073;-91
2023/05/19 08:47:24;;;;;;;7.85;5.65;;;;;;;;;;5118408;28;20337;-93
2023/05/19 08:49:52;;;;;;;6.78;4.82;;;;;;;;;;5119286;28;20015;-91
2023/05/19 08:52:32;;;;;;;9.32;5.38;;;;;;;;;;5118342;28;20051;-91
2023/05/19 08:55:03;;;;;;;8.20;5.72;;;;;;;;;;5119171;28;20043;-94
2023/05/19 08:57:29;;;;;;;6.50;5.40;;;;;;;;;;5119777;28;20045;-94
2023/05/19 08:59:56;;;;;;;5.85;4.85;;;;;;;;;;5119465;28;20028;-92
2023/05/19 09:02:23;;;;;;;7.60;5.63;;;;;;;;;;5119071;28;20116;-94
2023/05/19 09:04:50;;;;;;;6.85;6.10;;;;;;;;;;5117506;28;20023;-92
2023/05/19 09:07:16;;;;;;;8.43;5.80;;;;;;;;;;5118572;28;20030;-92
2023/05/19 09:09:42;;;;;;;7.68;6.20;;;;;;;;;;5118939;28;20409;-93
2023/05/19 09:12:11;;;;;;;6.57;5.88;;;;;;;;;;5118598;28;20032;-89
2023/05/19 09:14:37;;;;;;;8.70;5.28;;;;;;;;;;5116135;28;20024;-88
2023/05/19 09:17:04;;;;;;;6.75;5.80;;;;;;;;;;5104563;28;20411;-94
2023/05/19 09:19:30;;;;;;;10.15;5.53;;;;;;;;;;5100402;28;20099;-91
2023/05/19 09:22:01;;;;;;;11.48;5.90;;;;;;;;;;5115510;28;20114;-88
2023/05/19 09:24:28;;;;;;;10.98;5.72;;;;;;;;;;5104880;28;20055;-94
2023/05/19 09:26:57;;;;;;;7.22;5.50;;;;;;;;;;5113364;27;20039;-94
2023/05/19 09:29:24;;;;;;;7.05;6.05;;;;;;;;;;5115425;27;20020;-94
2023/05/19 09:31:51;;;;;;;8.23;6.18;;;;;;;;;;5097880;28;20120;-89
2023/05/19 09:34:18;;;;;;;8.38;6.20;;;;;;;;;;5097521;28;20020;-89
2023/05/19 09:36:48;;;;;;;7.25;6.30;;;;;;;;;;5096696;28;20123;-93
2023/05/19 09:39:17;;;;;;;10.48;6.65;;;;;;;;;;5098348;28;20036;-94
2023/05/19 09:41:44;;;;;;;8.75;6.55;;;;;;;;;;5098267;28;20031;-95
2023/05/19 09:44:13;;;;;;;8.70;6.65;;;;;;;;;;5097021;28;20101;-94
2023/05/19 09:46:47;;;;;;;8.95;6.07;;;;;;;;;;5097368;28;20032;-93
2023/05/19 09:49:13;;;;;;;10.48;6.63;;;;;;;;;;5101032;28;20020;-93
2023/05/19 09:51:40;;;;;;;9.65;6.35;;;;;;;;;;5096964;28;20117;-94
2023/05/19 09:54:08;;;;;;;9.20;6.88;;;;;;;;;;5098253;28;20020;-94
2023/05/19 09:56:35;;;;;;;7.53;6.72;;;;;;;;;;5099230;28;20056;-85
2023/05/19 09:59:03;;;;;;;13.70;6.60;;;;;;;;;;5096718;28;20027;-86
2023/05/19 10:01:30;;;;;;;8.65;6.30;;;;;;;;;;5097587;28;20024;-86
2023/05/19 10:03:56;;;;;;;10.32;6.45;;;;;;;;;;5096747;28;20035;-85
2023/05/19 10:06:22;;;;;;;9.18;6.53;;;;;;;;;;5097389;28;20153;-86
2023/05/19 10:08:49;;;;;;;7.00;6.30;;;;;;;;;;5097623;28;20031;-86
2023/05/19 10:11:16;;;;;;;11.25;7.18;;;;;;;;;;5097548;28;20032;-86
2023/05/19 10:13:44;;;;;;;8.95;7.18;;;;;;;;;;5098893;28;20016;-86
2023/05/19 10:16:10;;;;;;;10.10;6.88;;;;;;;;;;5100580;28;20028;-85
2023/05/19 10:18:37;;;;;;;9.30;6.97;;;;;;;;;;5100776;28;20058;-86
2023/05/19 10:21:04;;;;;;;10.15;7.25;;;;;;;;;;5100532;28;20357;-85
2023/05/19 10:23:30;;;;;;;9.80;7.80;;;;;;;;;;5135236;27;20324;-84
2023/05/19 10:25:58;;;;;;;8.63;6.82;;;;;;;;;;5141286;27;20083;-85
2023/05/19 10:28:26;;;;;;;11.77;7.63;;;;;;;;;;5127444;27;20121;-85
2023/05/19 10:30:54;;;;;;;8.20;6.63;;;;;;;;;;5120677;28;20023;-85
2023/05/19 10:33:24;;;;;;;11.35;7.20;;;;;;;;;;5121798;28;20027;-85
2023/05/19 10:35:50;;;;;;;11.73;7.05;;;;;;;;;;5121504;28;20046;-84
2023/05/19 10:38:21;;;;;;;9.80;7.05;;;;;;;;;;5119944;28;20351;-85
2023/05/19 10:40:53;;;;;;;7.40;5.90;;;;;;;;;;5120583;28;20034;-84
2023/05/19 10:43:24;;;;;;;7.45;6.05;;;;;;;;;;5121375;28;20037;-85
2023/05/19 10:45:53;;;;;;;7.03;6.32;;;;;;;;;;5121471;28;20023;-85
2023/05/19 10:48:20;;;;;;;8.65;6.10;;;;;;;;;;5120444;28;20046;-85
2023/05/19 10:50:47;;;;;;;19.48;6.95;;;;;;;;;;5120288;28;20027;-86
2023/05/19 10:53:18;;;;;;;12.57;7.57;;;;;;;;;;5121048;28;20054;-85
2023/05/19 10:55:46;;;;;;;6.70;6.00;;;;;;;;;;5121259;28;20063;-86
2023/05/19 10:58:12;;;;;;;6.47;5.55;;;;;;;;;;5105640;27;20264;-85
2023/05/19 11:00:40;;;;;;;7.82;5.85;;;;;;;;;;5100623;28;20028;-85
2023/05/19 11:03:22;;;;;;;7.50;5.75;;;;;;;;;;5101149;28;20032;-84
2023/05/19 11:05:51;;;;;;;8.57;5.47;;;;;;;;;;5100936;28;20028;-84
2023/05/19 11:08:31;;;;;;;11.15;5.47;;;;;;;;;;5099611;28;20020;-85
2023/05/19 11:11:11;;;;;;;9.13;5.55;;;;;;;;;;5100454;28;20020;-85
2023/05/19 11:13:37;;;;;;;5.85;5.25;;;;;;;;;;5100449;28;20032;-84
2023/05/19 11:16:09;;;;;;;8.52;5.38;;;;;;;;;;5100442;28;20026;-85
2023/05/19 11:18:37;;;;;;;7.90;5.70;;;;;;;;;;5100318;28;20024;-82
2023/05/19 11:21:03;;;;;;;6.45;5.50;;;;;;;;;;5100505;28;20032;-85
2023/05/19 11:23:33;;;;;;;6.05;5.40;;;;;;;;;;5100277;28;20028;-83
2023/05/19 11:26:01;;;;;;;10.93;5.72;;;;;;;;;;5098860;28;20032;-83
2023/05/19 11:28:28;;;;;;;10.02;5.55;;;;;;;;;;5099805;28;20028;-82
2023/05/19 11:30:56;;;;;;;7.65;5.38;;;;;;;;;;5099621;28;20444;-81
2023/05/19 11:33:26;;;;;;;6.00;5.22;;;;;;;;;;5110076;28;20432;-87
2023/05/19 11:35:53;;;;;;;566.88;41.88;;;;;;;;;;5110731;28;20020;-85
2023/05/19 11:38:19;;;;;;;65.72;10.15;;;;;;;;;;5121476;27;20039;-84
2023/05/19 11:40:48;;;;;;;12.60;5.40;;;;;;;;;;5120832;28;20069;-90
2023/05/19 11:43:15;;;;;;;6.32;5.63;;;;;;;;;;5120761;28;20325;-91
2023/05/19 11:45:41;;;;;;;7.80;6.05;;;;;;;;;;5114580;28;20048;-88
2023/05/19 11:48:11;;;;;;;6.75;5.10;;;;;;;;;;5105847;28;20318;-91
2023/05/19 11:50:37;;;;;;;9.00;5.75;;;;;;;;;;5100334;28;20089;-89
2023/05/19 11:53:03;;;;;;;6.45;4.82;;;;;;;;;;5100209;28;20028;-89
2023/05/19 11:55:29;;;;;;;10.43;6.05;;;;;;;;;;5111608;28;20048;-89
2023/05/19 11:58:03;;;;;;;7.55;5.05;;;;;;;;;;5119448;28;20034;-90
2023/05/19 12:00:30;;;;;;;10.13;5.40;;;;;;;;;;5128995;28;20031;-88
2023/05/19 12:02:59;;;;;;;9.52;5.75;;;;;;;;;;5122984;28;20032;-89
2023/05/19 12:05:27;;;;;;;9.07;6.70;;;;;;;;;;5120247;28;20031;-89
2023/05/19 12:07:53;;;;;;;7.75;5.47;;;;;;;;;;5120159;28;20027;-90
2023/05/19 12:10:22;;;;;;;5.80;5.20;;;;;;;;;;5118990;28;20028;-90
2023/05/19 12:12:50;;;;;;;7.30;5.68;;;;;;;;;;5119283;28;20019;-89
2023/05/19 12:15:19;;;;;;;8.57;5.55;;;;;;;;;;5119174;28;20032;-90
2023/05/19 12:17:48;;;;;;;7.32;5.82;;;;;;;;;;5120088;28;20027;-89
2023/05/19 12:20:14;;;;;;;10.48;6.72;;;;;;;;;;5103004;28;20024;-86
2023/05/19 12:22:40;;;;;;;10.48;6.40;;;;;;;;;;5099284;28;20076;-93
2023/05/19 12:25:07;;;;;;;8.18;6.20;;;;;;;;;;5098471;28;20043;-92
2023/05/19 12:27:36;;;;;;;10.45;6.55;;;;;;;;;;5100508;28;20011;-92
2023/05/19 12:30:02;;;;;;;9.65;6.43;;;;;;;;;;5098357;28;20032;-93
2023/05/19 12:32:28;;;;;;;8.50;6.75;;;;;;;;;;5099593;28;20020;-91
2023/05/19 12:34:59;;;;;;;10.77;6.68;;;;;;;;;;5098231;28;20107;-92
2023/05/19 12:37:32;;;;;;;13.38;6.45;;;;;;;;;;5098847;28;20032;-92
2023/05/19 12:39:58;;;;;;;9.55;6.07;;;;;;;;;;5106436;28;20027;-92
2023/05/19 12:42:31;;;;;;;8.05;6.93;;;;;;;;;;5116532;28;20020;-91
2023/05/19 12:44:58;;;;;;;10.00;6.43;;;;;;;;;;5106140;28;20370;-91
2023/05/19 12:47:30;;;;;;;13.55;7.10;;;;;;;;;;5113082;28;20024;-87
2023/05/19 12:50:00;;;;;;;13.23;6.65;;;;;;;;;;5109771;28;20333;-88
2023/05/19 12:52:27;;;;;;;10.25;6.85;;;;;;;;;;5117748;28;20055;-89
2023/05/19 12:55:00;;;;;;;7.45;5.32;;;;;;;;;;5119231;28;20036;-89
2023/05/19 12:57:27;;;;;;;7.80;5.72;;;;;;;;;;5119156;27;20135;-88
2023/05/19 12:59:53;;;;;;;7.45;5.80;;;;;;;;;;5118255;28;20043;-89
2023/05/19 13:02:20;;;;;;;7.78;6.30;;;;;;;;;;5118674;28;20035;-90
2023/05/19 13:04:47;;;;;;;7.03;5.97;;;;;;;;;;5118936;27;20015;-89
2023/05/19 13:07:13;;;;;;;8.40;6.07;;;;;;;;;;5119048;28;20031;-89
2023/05/19 13:09:39;;;;;;;6.90;6.00;;;;;;;;;;5117229;28;20032;-88
2023/05/19 13:12:05;;;;;;;6.88;5.82;;;;;;;;;;5117682;28;20089;-89
2023/05/19 13:14:31;;;;;;;11.25;6.07;;;;;;;;;;5119157;28;20433;-89
2023/05/19 13:16:57;;;;;;;9.75;5.85;;;;;;;;;;5117891;28;20036;-88
2023/05/19 13:19:23;;;;;;;11.82;6.22;;;;;;;;;;5118598;28;20027;-88
2023/05/19 13:21:53;;;;;;;6.93;6.22;;;;;;;;;;5118907;28;20035;-89
2023/05/19 13:24:19;;;;;;;8.05;6.20;;;;;;;;;;5118960;28;20027;-89
2023/05/19 13:26:46;;;;;;;9.88;7.70;;;;;;;;;;5117447;28;20031;-88
2023/05/19 13:29:12;;;;;;;7.60;6.72;;;;;;;;;;5117726;28;20322;-88
2023/05/19 13:31:38;;;;;;;9.07;7.38;;;;;;;;;;5117705;28;20118;-89
2023/05/19 13:34:04;;;;;;;8.13;7.20;;;;;;;;;;5117379;28;20024;-89
2023/05/19 13:36:32;;;;;;;8.52;7.43;;;;;;;;;;5117461;28;20024;-88
2023/05/19 13:38:59;;;;;;;7.80;6.93;;;;;;;;;;5117357;28;20034;-90
2023/05/19 13:41:25;;;;;;;11.02;7.32;;;;;;;;;;5117443;28;20019;-89
2023/05/19 13:43:52;;;;;;;9.05;7.40;;;;;;;;;;5117857;28;20028;-88
2023/05/19 13:46:19;;;;;;;8.38;7.22;;;;;;;;;;5117464;28;20070;-89
2023/05/19 13:48:45;;;;;;;9.13;6.72;;;;;;;;;;5117984;28;20019;-89
2023/05/19 13:51:11;;;;;;;8.95;6.85;;;;;;;;;;5123598;28;20065;-89
2023/05/19 13:53:38;;;;;;;7.10;5.88;;;;;;;;;;5119351;28;20028;-89
2023/05/19 13:56:04;;;;;;;10.73;7.50;;;;;;;;;;5119040;28;20096;-89
2023/05/19 13:58:30;;;;;;;10.23;7.32;;;;;;;;;;5117714;28;20031;-89
2023/05/19 14:00:58;;;;;;;12.93;8.30;;;;;;;;;;5118271;28;20030;-89
2023/05/19 14:03:24;;;;;;;14.90;7.43;;;;;;;;;;5118429;28;20028;-89
2023/05/19 14:05:51;;;;;;;9.65;7.68;;;;;;;;;;5118303;28;20067;-89
2023/05/19 14:08:18;;;;;;;10.88;7.30;;;;;;;;;;5116780;28;20032;-89
2023/05/19 14:10:47;;;;;;;8.00;7.15;;;;;;;;;;5118256;28;20042;-89
2023/05/19 14:13:13;;;;;;;8.93;7.18;;;;;;;;;;5118012;28;20409;-87
2023/05/19 14:15:40;;;;;;;9.20;7.90;;;;;;;;;;5117008;28;20027;-89
2023/05/19 14:18:06;;;;;;;11.07;8.15;;;;;;;;;;5118378;28;20089;-89
2023/05/19 14:20:32;;;;;;;13.82;8.25;;;;;;;;;;5117079;28;20020;-88
2023/05/19 14:22:58;;;;;;;13.43;8.13;;;;;;;;;;5118241;28;20030;-89
2023/05/19 14:25:24;;;;;;;10.50;7.10;;;;;;;;;;5117657;28;20035;-89
2023/05/19 14:27:50;;;;;;;9.35;7.43;;;;;;;;;;5116922;28;20020;-89
2023/05/19 14:30:16;;;;;;;11.45;8.07;;;;;;;;;;5116892;28;20028;-90
2023/05/19 14:32:42;;;;;;;8.18;7.07;;;;;;;;;;5116604;28;20032;-89
2023/05/19 14:35:08;;;;;;;9.23;6.85;;;;;;;;;;5117849;28;20016;-89
2023/05/19 14:37:34;;;;;;;6.32;5.72;;;;;;;;;;5117993;28;20024;-88
2023/05/19 14:40:01;;;;;;;10.00;6.20;;;;;;;;;;5117715;28;20028;-89
2023/05/19 14:42:27;;;;;;;8.93;7.47;;;;;;;;;;5116412;28;20040;-88
2023/05/19 14:44:53;;;;;;;7.53;6.75;;;;;;;;;;5114767;28;20139;-89
2023/05/19 14:47:21;;;;;;;8.38;7.30;;;;;;;;;;5109388;28;20023;-90
2023/05/19 14:49:47;;;;;;;11.82;7.68;;;;;;;;;;5104721;28;20123;-89
2023/05/19 14:52:13;;;;;;;11.20;7.50;;;;;;;;;;5096296;28;20068;-89
2023/05/19 14:54:39;;;;;;;12.88;6.95;;;;;;;;;;5106718;28;20085;-90
2023/05/19 14:57:06;;;;;;;9.93;7.78;;;;;;;;;;5117226;28;20043;-83
2023/05/19 14:59:36;;;;;;;13.02;8.82;;;;;;;;;;5119240;28;20362;-83
2023/05/19 15:02:02;;;;;;;12.25;7.53;;;;;;;;;;5107323;27;20073;-89
2023/05/19 15:04:28;;;;;;;8.98;7.00;;;;;;;;;;5099982;28;20114;-88
2023/05/19 15:10:43;;;;;;;10.85;7.75;;;;;;;;;;5101693;28;20353;-86
2023/05/19 15:13:10;;;;;;;10.80;7.60;;;;;;;;;;5102335;28;20086;-85
2023/05/19 15:15:36;;;;;;;9.38;7.15;;;;;;;;;;5120299;28;20078;-90
2023/05/19 15:18:02;;;;;;;8.35;6.57;;;;;;;;;;5119675;28;20024;-88
2023/05/19 15:20:28;;;;;;;13.77;6.60;;;;;;;;;;5105372;28;20020;-91